createdAt,value
2019-03-21T00:01:38.842Z,78.46
2019-03-21T00:16:41.380Z,80.91
2019-03-21T00:31:44.925Z,82.18
2019-03-21T00:46:49.069Z,81.76
2019-03-21T01:01:51.613Z,80.54
2019-03-21T01:16:55.535Z,78.50
2019-03-21T01:31:59.002Z,79.73
2019-03-21T01:47:01.557Z,84.68
2019-03-21T02:02:05.872Z,85.65
2019-03-21T02:17:08.491Z,83.37
2019-03-21T02:32:12.203Z,83.01
2019-03-21T02:47:14.761Z,83.11
2019-03-21T03:02:17.447Z,83.69
2019-03-21T03:17:20.582Z,83.66
2019-03-21T03:32:23.709Z,85.15
2019-03-21T03:47:26.283Z,84.27
2019-03-21T04:02:29.597Z,84.44
2019-03-21T04:17:32.923Z,83.60
2019-03-21T04:32:35.482Z,82.58
2019-03-21T04:47:38.052Z,82.88
2019-03-21T05:02:41.415Z,81.36
2019-03-21T05:17:46.115Z,80.41
2019-03-21T05:32:50.297Z,80.50
2019-03-21T05:47:53.724Z,78.85
2019-03-21T06:02:58.275Z,76.64
2019-03-21T06:18:22.050Z,73.20
2019-03-21T06:33:24.605Z,71.65
2019-03-21T06:48:28.515Z,69.24
2019-03-21T07:03:31.197Z,65.86
2019-03-21T07:18:33.774Z,64.12
2019-03-21T07:33:37.365Z,67.18
2019-03-21T07:48:40.702Z,71.30
2019-03-21T08:03:43.711Z,70.02
2019-03-21T08:18:47.036Z,67.78
2019-03-21T08:33:50.733Z,71.18
2019-03-21T08:48:54.165Z,71.85
2019-03-21T09:03:56.746Z,73.78
2019-03-21T09:19:00.976Z,71.14
2019-03-21T09:34:04.201Z,68.45
2019-03-21T09:49:07.030Z,67.46
2019-03-21T10:04:09.764Z,69.94
2019-03-21T10:19:43.157Z,69.06
2019-03-21T10:35:16.953Z,66.23
2019-03-21T10:50:52.708Z,62.08
2019-03-21T11:06:25.489Z,54.44
2019-03-21T11:22:06.264Z,52.64
2019-03-21T11:37:33.893Z,54.09
2019-03-21T11:53:06.790Z,61.55
2019-03-21T12:08:39.784Z,58.41
2019-03-21T12:24:12.608Z,59.79
2019-03-21T12:39:46.019Z,54.33
2019-03-21T12:55:19.841Z,56.68
2019-03-21T13:10:52.986Z,54.29
2019-03-21T13:26:26.038Z,52.86
2019-03-21T13:41:59.333Z,54.59
2019-03-21T13:57:32.667Z,56.65
2019-03-21T14:13:05.426Z,57.98
2019-03-21T14:28:38.243Z,57.58
2019-03-21T14:44:11.313Z,59.73
2019-03-21T14:59:44.664Z,59.29
2019-03-21T15:14:47.312Z,58.43
2019-03-21T15:29:51.542Z,60.13
2019-03-21T15:45:10.361Z,63.38
2019-03-21T16:00:02.128Z,65.09
2019-03-21T16:15:07.781Z,65.55
2019-03-21T16:30:13.111Z,66.25
2019-03-21T16:45:20.949Z,69.00
2019-03-21T17:00:26.051Z,70.56
2019-03-21T17:15:30.357Z,69.95
2019-03-21T17:30:36.217Z,71.02
2019-03-21T17:45:38.849Z,72.14
2019-03-21T18:00:43.265Z,75.92
2019-03-21T18:15:47.289Z,76.85
2019-03-21T18:30:51.246Z,75.58
2019-03-21T18:45:53.813Z,76.19
2019-03-21T19:00:56.921Z,74.82
2019-03-21T19:16:00.725Z,74.87
2019-03-21T19:31:03.429Z,76.98
2019-03-21T19:46:06.142Z,79.81
2019-03-21T20:01:09.549Z,82.91
2019-03-21T20:16:12.131Z,85.48
2019-03-21T20:31:15.208Z,88.70
2019-03-21T20:46:17.779Z,89.91
2019-03-21T21:01:20.380Z,89.73
2019-03-21T21:16:24.416Z,91.44
2019-03-21T21:31:26.989Z,92.53
2019-03-21T21:46:29.544Z,94.96
2019-03-21T22:01:33.241Z,95.94
2019-03-21T22:16:37.319Z,97.66
2019-03-21T22:31:39.876Z,99.36
2019-03-21T22:46:45.931Z,97.18
2019-03-21T23:01:48.545Z,99.07
2019-03-21T23:16:52.726Z,99.75
2019-03-21T23:31:56.043Z,100.00
2019-03-21T23:46:58.602Z,100.00
